Hlavní strana
METAR-TAF:

METAR-TAF

Letiště :

Växjö, Švédsko

zeměpisná šířka: 56-51N, zeměpisná délka: 014-50E, výška: 199 m

Aktuální stav počasí

Zpráva byla vytvořena před 27 minutami, v 17:50 UTC
vítr z různých směrů 2 kt
Teplota 5°C
Vlhkost vzduchu 87%
Tlak 1021 hPa
Viditelnost 10 km a více
Žádná oblačnost pod 1500 m, nevyskytují se cumulonimby.

METAR: ESMX 181750Z VRB02KT CAVOK 05/03 Q1021

Čas: 20:17 (18:17 UTC)

Předpověď počasí

Zpráva byla vytvořena před 47 minutami, v 17:30 UTC
Předpověď platná od 18 v 18 UTC do 19 v 01 UTC
vítr z různých směrů 2 kt
Viditelnost 10 km a více
Žádná oblačnost pod 1500 m, nevyskytují se cumulonimby.
Pravděpodobnost 40%
od 18 v 23 UTC do 19 v 01 UTC
Viditelnost: 2000 m
chuchvalce mlhy

TAF: ESMX 181730Z 1818/1901 VRB02KT CAVOK PROB40 1823/1901 2000 BCFG

Stav a předpovědi počasí z více než 4 000 letišť (zprávy METAR a TAF).

Červené a žluté tečky na mapě představují dostupné meteorologické stanice.

Když kurzor umístíte na tečku, zobrazí se název stanice.

Pak kliknutím zobrazíte stav a předpověď počasí.

Chcete-li změnit mapu, kliknutím na zelené tlačítko se znaménkem +mapu přiblížíte, kliknutím na zelené tlačítko se znaménkem – mapu oddálíte a kliknutím na zelené šipky přejdete na sousední mapy.


METAR-TAF: